createdAt,value
2017-12-15T00:01:21.286Z,0.80
2017-12-15T00:03:49.838Z,0.90
2017-12-15T00:06:18.300Z,1.07
2017-12-15T00:08:46.834Z,1.10
2017-12-15T00:11:14.603Z,1.20
2017-12-15T00:13:43.290Z,0.82
2017-12-15T00:16:11.707Z,1.15
2017-12-15T00:18:40.911Z,0.80
2017-12-15T00:21:09.624Z,0.90
2017-12-15T00:23:39.147Z,1.27
2017-12-15T00:26:07.927Z,3.83
2017-12-15T00:28:37.373Z,0.70
2017-12-15T00:31:05.806Z,0.80
2017-12-15T00:33:34.503Z,0.70
2017-12-15T00:36:03.979Z,0.60
2017-12-15T00:38:32.434Z,1.60
2017-12-15T00:41:01.122Z,0.60
2017-12-15T00:43:29.842Z,0.50
2017-12-15T00:45:58.562Z,1.12
2017-12-15T00:48:27.274Z,0.75
2017-12-15T00:50:55.733Z,0.50
2017-12-15T00:53:24.162Z,0.50
2017-12-15T00:55:53.342Z,0.80
2017-12-15T00:58:21.795Z,0.60
2017-12-15T01:00:50.218Z,0.50
2017-12-15T01:03:19.417Z,1.03
2017-12-15T01:05:48.274Z,0.60
2017-12-15T01:08:16.363Z,0.70
2017-12-15T01:10:44.778Z,0.60
2017-12-15T01:13:13.215Z,0.57
2017-12-15T01:15:41.286Z,0.70
2017-12-15T01:18:09.730Z,0.70
2017-12-15T01:20:38.222Z,0.47
2017-12-15T01:23:06.306Z,6.10
2017-12-15T01:25:34.799Z,0.53
2017-12-15T01:28:03.218Z,0.60
2017-12-15T01:30:32.491Z,1.40
2017-12-15T01:33:00.619Z,1.13
2017-12-15T01:35:28.747Z,0.43
2017-12-15T01:37:57.179Z,0.50
2017-12-15T01:40:25.622Z,0.53
2017-12-15T01:42:53.718Z,0.60
2017-12-15T01:45:22.923Z,0.70
2017-12-15T01:47:51.379Z,0.70
2017-12-15T01:50:19.816Z,0.60
2017-12-15T01:52:49.283Z,0.88
2017-12-15T01:55:18.480Z,0.60
2017-12-15T01:57:46.995Z,0.62
2017-12-15T02:00:16.102Z,0.80
2017-12-15T02:02:45.571Z,1.37
2017-12-15T02:05:14.258Z,1.35
2017-12-15T02:07:43.311Z,0.60
2017-12-15T02:10:11.987Z,0.77
2017-12-15T02:12:40.696Z,0.70
2017-12-15T02:15:09.383Z,0.60
2017-12-15T02:17:38.063Z,1.37
2017-12-15T02:20:06.758Z,0.88
2017-12-15T02:22:35.526Z,0.75
2017-12-15T02:25:05.000Z,0.60
2017-12-15T02:27:33.702Z,0.70
2017-12-15T02:30:02.579Z,0.60
2017-12-15T02:32:31.495Z,1.37
2017-12-15T02:35:00.964Z,0.70
2017-12-15T02:37:29.643Z,0.50
2017-12-15T02:39:58.342Z,1.45
2017-12-15T02:42:27.042Z,0.50
2017-12-15T02:44:56.327Z,1.10
2017-12-15T02:47:25.019Z,2.25
2017-12-15T02:49:53.466Z,0.70
2017-12-15T02:52:22.152Z,0.50
2017-12-15T02:54:50.877Z,0.65
2017-12-15T02:57:19.587Z,1.12
2017-12-15T02:59:49.203Z,0.75
2017-12-15T03:02:18.678Z,0.60
2017-12-15T03:04:47.383Z,0.93
2017-12-15T03:07:16.138Z,0.50
2017-12-15T03:09:45.023Z,0.65
2017-12-15T03:12:13.394Z,1.52
2017-12-15T03:14:42.084Z,0.60
2017-12-15T03:17:10.787Z,0.50
2017-12-15T03:19:39.472Z,1.58
2017-12-15T03:22:08.170Z,0.80
2017-12-15T03:24:36.864Z,0.57
2017-12-15T03:27:05.617Z,0.60
2017-12-15T03:29:34.314Z,0.60
2017-12-15T03:32:03.110Z,0.40
2017-12-15T03:34:31.814Z,0.57
2017-12-15T03:37:00.520Z,0.50
2017-12-15T03:39:29.975Z,1.30
2017-12-15T03:41:58.811Z,0.75
2017-12-15T03:44:27.498Z,0.50
2017-12-15T03:46:56.195Z,3.00
2017-12-15T03:49:25.075Z,0.52
2017-12-15T03:51:53.763Z,0.77
2017-12-15T03:54:22.466Z,1.50
2017-12-15T03:56:51.923Z,0.85
2017-12-15T03:59:20.649Z,0.75
2017-12-15T04:01:50.222Z,0.50
2017-12-15T04:04:18.914Z,2.75
2017-12-15T04:06:47.596Z,1.85
2017-12-15T04:09:16.311Z,1.55
2017-12-15T04:11:44.996Z,0.95
2017-12-15T04:14:13.699Z,0.50
2017-12-15T04:16:42.046Z,0.60
2017-12-15T04:19:10.826Z,2.05
2017-12-15T04:21:39.511Z,2.05
2017-12-15T04:24:07.563Z,0.50
2017-12-15T04:26:35.915Z,1.12
2017-12-15T04:29:05.523Z,0.68
2017-12-15T04:31:35.008Z,1.30
2017-12-15T04:34:03.681Z,0.60
2017-12-15T04:36:32.371Z,0.88
2017-12-15T04:39:01.123Z,0.90
2017-12-15T04:41:29.822Z,0.80
2017-12-15T04:43:58.510Z,2.67
2017-12-15T04:46:27.203Z,0.75
2017-12-15T04:48:55.543Z,2.97
2017-12-15T04:51:25.011Z,1.17
2017-12-15T04:53:53.694Z,0.50
2017-12-15T04:56:22.055Z,2.65
2017-12-15T04:58:50.747Z,2.67
2017-12-15T05:01:19.446Z,1.00
2017-12-15T05:03:48.246Z,6.78
2017-12-15T05:06:16.942Z,2.25
2017-12-15T05:08:45.706Z,1.30
2017-12-15T05:11:14.542Z,2.10
2017-12-15T05:13:44.018Z,1.80
2017-12-15T05:16:12.750Z,2.53
2017-12-15T05:18:41.110Z,0.50
2017-12-15T05:21:10.563Z,0.95
2017-12-15T05:23:39.390Z,1.12
2017-12-15T05:26:07.577Z,0.60
2017-12-15T05:28:36.275Z,0.88
2017-12-15T05:31:05.735Z,9.90
2017-12-15T05:33:34.511Z,1.52
2017-12-15T05:36:03.195Z,1.60
2017-12-15T05:38:31.945Z,1.37
2017-12-15T05:41:01.167Z,3.47
2017-12-15T05:43:30.267Z,5.50
2017-12-15T05:45:58.979Z,2.50
2017-12-15T05:48:27.691Z,2.28
2017-12-15T05:50:56.386Z,2.75
2017-12-15T05:53:25.915Z,3.65
2017-12-15T05:55:55.438Z,2.20
2017-12-15T05:58:24.151Z,1.98
2017-12-15T06:00:52.884Z,1.90
2017-12-15T06:03:22.338Z,6.68
2017-12-15T06:05:51.287Z,2.60
2017-12-15T06:08:20.743Z,9.38
2017-12-15T06:10:49.441Z,2.22
2017-12-15T06:13:18.142Z,1.75
2017-12-15T06:15:46.826Z,3.10
2017-12-15T06:18:15.646Z,1.30
2017-12-15T06:20:45.116Z,1.90
2017-12-15T06:23:13.848Z,1.92
2017-12-15T06:25:43.299Z,1.45
2017-12-15T06:28:11.998Z,4.97
2017-12-15T06:30:40.050Z,1.20
2017-12-15T06:33:08.078Z,2.05
2017-12-15T06:35:37.391Z,1.20
2017-12-15T06:38:07.066Z,1.10
2017-12-15T06:40:35.475Z,1.50
2017-12-15T06:43:04.942Z,1.77
2017-12-15T06:45:33.866Z,3.83
2017-12-15T06:48:03.320Z,2.28
2017-12-15T06:50:32.038Z,1.50
2017-12-15T06:53:00.859Z,1.67
2017-12-15T06:55:30.052Z,1.60
2017-12-15T06:57:59.066Z,8.18
2017-12-15T07:00:27.771Z,2.45
2017-12-15T07:02:56.481Z,1.67
2017-12-15T07:05:25.205Z,2.08
2017-12-15T07:07:54.683Z,1.60
2017-12-15T07:10:23.363Z,1.50
2017-12-15T07:12:52.167Z,2.05
2017-12-15T07:15:20.855Z,4.18
2017-12-15T07:17:49.559Z,3.10
2017-12-15T07:20:19.191Z,1.85
2017-12-15T07:22:47.902Z,3.17
2017-12-15T07:25:16.597Z,1.33
2017-12-15T07:27:45.346Z,1.23
2017-12-15T07:30:14.802Z,1.50
2017-12-15T07:32:43.557Z,1.77
2017-12-15T07:35:12.277Z,1.55
2017-12-15T07:37:41.123Z,0.88
2017-12-15T07:40:10.271Z,1.95
2017-12-15T07:42:38.962Z,1.35
2017-12-15T07:45:07.679Z,0.98
2017-12-15T07:47:36.462Z,1.60
2017-12-15T07:50:05.175Z,0.80
2017-12-15T07:52:34.295Z,1.73
2017-12-15T07:55:03.003Z,1.55
2017-12-15T07:57:31.590Z,0.60
2017-12-15T08:00:00.283Z,1.48
2017-12-15T08:02:29.118Z,1.00
2017-12-15T08:04:58.242Z,2.28
2017-12-15T08:07:27.163Z,3.12
2017-12-15T08:09:55.847Z,1.30
2017-12-15T08:12:24.642Z,1.17
2017-12-15T08:14:53.318Z,1.05
2017-12-15T08:17:22.047Z,0.90
2017-12-15T08:19:51.671Z,3.12
2017-12-15T08:22:21.142Z,0.93
2017-12-15T08:24:49.943Z,0.90
2017-12-15T08:27:18.680Z,1.00
2017-12-15T08:29:47.378Z,1.52
2017-12-15T08:32:16.326Z,0.73
2017-12-15T08:34:45.800Z,2.05
2017-12-15T08:37:14.579Z,0.80
2017-12-15T08:39:43.295Z,1.25
2017-12-15T08:42:12.115Z,0.98
2017-12-15T08:44:41.557Z,1.20
2017-12-15T08:47:10.270Z,0.93
2017-12-15T08:49:38.982Z,1.20
2017-12-15T08:52:08.455Z,2.03
2017-12-15T08:54:37.146Z,1.67
2017-12-15T08:57:05.861Z,0.50
2017-12-15T08:59:35.364Z,1.85
2017-12-15T09:02:04.052Z,0.73
2017-12-15T09:04:33.516Z,1.52
2017-12-15T09:07:02.195Z,3.20
2017-12-15T09:09:30.994Z,1.58
2017-12-15T09:11:59.692Z,1.87
2017-12-15T09:14:28.115Z,1.60
2017-12-15T09:16:57.602Z,1.83
2017-12-15T09:19:26.379Z,1.15
2017-12-15T09:21:55.255Z,6.73
2017-12-15T09:24:24.118Z,2.55
2017-12-15T09:26:52.811Z,4.10
2017-12-15T09:29:21.255Z,2.73
2017-12-15T09:31:49.944Z,1.45
2017-12-15T09:34:19.551Z,2.10
2017-12-15T09:36:47.651Z,1.63
2017-12-15T09:39:16.378Z,0.73
2017-12-15T09:41:45.091Z,2.37
2017-12-15T09:44:13.776Z,4.37
2017-12-15T09:46:42.482Z,1.42
2017-12-15T09:49:11.995Z,1.87
2017-12-15T09:51:40.504Z,2.00
2017-12-15T09:54:08.940Z,3.03
2017-12-15T09:56:37.383Z,4.10
2017-12-15T09:59:06.129Z,1.95
2017-12-15T10:01:35.634Z,3.08
2017-12-15T10:04:04.083Z,2.10
2017-12-15T10:06:33.399Z,5.90
2017-12-15T10:09:01.898Z,2.10
2017-12-15T10:11:30.331Z,0.70
2017-12-15T10:13:58.762Z,3.27
2017-12-15T10:16:27.211Z,6.20
2017-12-15T10:18:56.416Z,1.20
2017-12-15T10:21:24.840Z,2.83
2017-12-15T10:23:53.335Z,2.83
2017-12-15T10:26:21.763Z,2.63
2017-12-15T10:28:50.215Z,0.80
2017-12-15T10:31:18.637Z,2.07
2017-12-15T10:33:47.087Z,2.50
2017-12-15T10:36:16.090Z,2.40
2017-12-15T10:38:45.286Z,1.73
2017-12-15T10:41:14.471Z,1.70
2017-12-15T10:43:43.036Z,2.20
2017-12-15T10:46:11.512Z,1.80
2017-12-15T10:48:40.273Z,1.70
2017-12-15T10:51:08.700Z,0.97
2017-12-15T10:53:37.124Z,1.63
2017-12-15T10:56:05.623Z,0.90
2017-12-15T10:58:34.054Z,2.00
2017-12-15T11:01:02.689Z,2.20
2017-12-15T11:03:31.169Z,1.00
2017-12-15T11:05:59.622Z,2.73
2017-12-15T11:08:28.849Z,2.27
2017-12-15T11:10:57.294Z,3.00
2017-12-15T11:13:26.516Z,1.80
2017-12-15T11:15:54.971Z,1.50
2017-12-15T11:18:23.436Z,2.10
2017-12-15T11:20:51.977Z,2.03
2017-12-15T11:23:20.411Z,1.33
2017-12-15T11:25:48.859Z,0.97
2017-12-15T11:28:16.935Z,3.17
2017-12-15T11:30:45.064Z,4.47
2017-12-15T11:33:14.255Z,1.37
2017-12-15T11:35:43.442Z,1.63
2017-12-15T11:38:11.869Z,1.97
2017-12-15T11:40:40.359Z,0.67
2017-12-15T11:43:08.787Z,3.70
2017-12-15T11:45:37.191Z,0.80
2017-12-15T11:48:05.635Z,2.43
2017-12-15T11:50:34.063Z,2.67
2017-12-15T11:53:02.501Z,1.10
2017-12-15T11:55:30.944Z,0.70
2017-12-15T11:57:59.382Z,2.50
2017-12-15T12:00:27.931Z,0.70
2017-12-15T12:02:56.011Z,3.53
2017-12-15T12:05:24.259Z,1.67
2017-12-15T12:07:52.744Z,2.00
2017-12-15T12:10:20.850Z,1.47
2017-12-15T12:12:49.544Z,1.87
2017-12-15T12:15:18.123Z,3.10
2017-12-15T12:17:46.591Z,1.77
2017-12-15T12:20:15.034Z,1.93
2017-12-15T12:22:43.474Z,1.20
2017-12-15T12:25:12.276Z,1.60
2017-12-15T12:27:40.392Z,1.57
2017-12-15T12:30:08.823Z,2.00
2017-12-15T12:32:37.016Z,1.50
2017-12-15T12:35:06.283Z,1.33
2017-12-15T12:37:34.386Z,1.83
2017-12-15T12:40:03.582Z,0.87
2017-12-15T12:42:32.790Z,0.60
2017-12-15T12:45:02.110Z,1.00
2017-12-15T12:47:30.587Z,1.80
2017-12-15T12:49:59.007Z,0.70
2017-12-15T12:52:27.458Z,0.90
2017-12-15T12:54:55.951Z,0.90
2017-12-15T12:57:24.390Z,1.50
2017-12-15T12:59:52.811Z,0.70
2017-12-15T13:02:21.253Z,1.30
2017-12-15T13:04:49.671Z,3.53
2017-12-15T13:07:17.792Z,1.80
2017-12-15T13:09:46.227Z,1.60
2017-12-15T13:12:14.650Z,2.30
2017-12-15T13:14:42.879Z,1.53
2017-12-15T13:17:11.307Z,3.83
2017-12-15T13:19:39.831Z,7.97
2017-12-15T13:22:09.023Z,1.17
2017-12-15T13:24:38.255Z,0.60
2017-12-15T13:27:06.495Z,1.30
2017-12-15T13:29:35.704Z,1.90
2017-12-15T13:32:04.918Z,0.77
2017-12-15T13:34:33.380Z,1.60
2017-12-15T13:37:02.575Z,2.63
2017-12-15T13:39:31.796Z,1.10
2017-12-15T13:42:00.222Z,1.03
2017-12-15T13:44:28.654Z,3.50
2017-12-15T13:46:57.167Z,1.10
2017-12-15T13:49:25.600Z,0.67
2017-12-15T13:51:54.807Z,1.40
2017-12-15T13:54:23.992Z,4.63
2017-12-15T13:56:52.538Z,0.80
2017-12-15T13:59:22.455Z,0.93
2017-12-15T14:01:50.926Z,0.93
2017-12-15T14:04:19.356Z,1.00
2017-12-15T14:06:47.807Z,0.60
2017-12-15T14:09:16.580Z,0.67
2017-12-15T14:11:45.022Z,0.90
2017-12-15T14:14:14.249Z,0.90
2017-12-15T14:16:42.713Z,2.40
2017-12-15T14:19:11.229Z,0.90
2017-12-15T14:21:39.671Z,1.07
2017-12-15T14:24:08.863Z,0.70
2017-12-15T14:26:38.094Z,5.80
2017-12-15T14:29:06.515Z,1.10
2017-12-15T14:31:34.951Z,3.00
2017-12-15T14:34:03.176Z,1.10
2017-12-15T14:36:31.259Z,0.83
2017-12-15T14:38:59.715Z,3.43
2017-12-15T14:41:28.154Z,2.37
2017-12-15T14:43:57.359Z,2.97
2017-12-15T14:46:25.792Z,1.40
2017-12-15T14:48:54.291Z,1.10
2017-12-15T14:51:22.876Z,2.83
2017-12-15T14:53:51.330Z,1.00
2017-12-15T14:56:19.853Z,1.63
2017-12-15T14:58:48.763Z,1.10
2017-12-15T15:01:17.654Z,0.90
2017-12-15T15:03:46.304Z,1.00
2017-12-15T15:06:14.735Z,4.83
2017-12-15T15:08:43.201Z,1.60
2017-12-15T15:11:11.987Z,1.20
2017-12-15T15:13:41.196Z,2.13
2017-12-15T15:16:09.699Z,1.80
2017-12-15T15:18:37.820Z,1.50
2017-12-15T15:21:06.553Z,2.58
2017-12-15T15:23:35.246Z,1.83
2017-12-15T15:26:03.683Z,1.13
2017-12-15T15:28:32.378Z,1.87
2017-12-15T15:31:01.206Z,1.60
2017-12-15T15:33:31.280Z,1.70
2017-12-15T15:35:59.987Z,2.15
2017-12-15T15:38:28.355Z,5.45
2017-12-15T15:40:56.427Z,3.50
2017-12-15T15:43:24.458Z,1.60
2017-12-15T15:45:52.505Z,3.42
2017-12-15T15:48:20.613Z,2.58
2017-12-15T15:50:48.779Z,5.00
2017-12-15T15:53:16.793Z,1.52
2017-12-15T15:55:44.862Z,3.08
2017-12-15T15:58:12.931Z,7.35
2017-12-15T16:00:41.071Z,1.50
2017-12-15T16:03:09.124Z,4.40
2017-12-15T16:05:38.073Z,1.83
2017-12-15T16:08:06.198Z,4.40
2017-12-15T16:10:35.799Z,5.57
2017-12-15T16:13:04.688Z,2.50
2017-12-15T16:15:33.484Z,3.62
2017-12-15T16:18:02.951Z,2.53
2017-12-15T16:20:31.650Z,4.47
2017-12-15T16:23:00.055Z,4.55
2017-12-15T16:25:29.578Z,7.97
2017-12-15T16:27:58.391Z,2.08
2017-12-15T16:30:26.412Z,4.30
2017-12-15T16:32:55.554Z,3.28
2017-12-15T16:35:23.599Z,2.45
2017-12-15T16:37:52.409Z,4.10
2017-12-15T16:40:21.135Z,6.82
2017-12-15T16:42:49.528Z,5.68
2017-12-15T16:45:17.585Z,4.55
2017-12-15T16:47:45.632Z,6.75
2017-12-15T16:50:13.678Z,6.37
2017-12-15T16:52:41.714Z,4.70
2017-12-15T16:55:10.102Z,5.40
2017-12-15T16:57:38.188Z,4.60
2017-12-15T17:00:07.351Z,4.85
2017-12-15T17:02:35.385Z,9.10
2017-12-15T17:05:03.432Z,7.50
2017-12-15T17:07:32.551Z,6.12
2017-12-15T17:10:00.618Z,10.50
2017-12-15T17:12:29.025Z,17.40
2017-12-15T17:14:57.125Z,20.37
2017-12-15T17:17:25.500Z,14.57
2017-12-15T17:19:54.204Z,12.85
2017-12-15T17:22:22.942Z,16.10
2017-12-15T17:24:51.346Z,11.57
2017-12-15T17:27:19.385Z,8.85
2017-12-15T17:29:47.757Z,11.48
2017-12-15T17:32:16.634Z,9.40
2017-12-15T17:34:45.136Z,10.73
2017-12-15T17:37:14.353Z,9.88
2017-12-15T17:39:42.731Z,7.12
2017-12-15T17:42:11.422Z,7.32
2017-12-15T17:44:40.146Z,6.22
2017-12-15T17:47:08.869Z,5.25
2017-12-15T17:49:38.355Z,5.10
2017-12-15T17:52:07.064Z,6.37
2017-12-15T17:54:36.581Z,4.68
2017-12-15T17:57:06.059Z,6.60
2017-12-15T17:59:35.572Z,6.85
2017-12-15T18:02:05.078Z,4.07
2017-12-15T18:04:33.795Z,6.00
2017-12-15T18:07:02.502Z,5.45
2017-12-15T18:09:31.207Z,6.03
2017-12-15T18:11:59.967Z,12.55
2017-12-15T18:14:28.732Z,3.40
2017-12-15T18:16:58.502Z,3.60
2017-12-15T18:19:27.196Z,4.87
2017-12-15T18:21:55.919Z,6.15
2017-12-15T18:24:25.385Z,5.28
2017-12-15T18:26:54.107Z,12.88
2017-12-15T18:29:23.571Z,7.00
2017-12-15T18:31:52.301Z,8.18
2017-12-15T18:34:21.756Z,4.00
2017-12-15T18:36:50.500Z,13.15
2017-12-15T18:39:19.990Z,4.30
2017-12-15T18:41:48.712Z,6.70
2017-12-15T18:44:17.427Z,4.18
2017-12-15T18:46:46.122Z,5.37
2017-12-15T18:49:14.517Z,8.20
2017-12-15T18:51:43.214Z,4.55
2017-12-15T18:54:13.091Z,7.25
2017-12-15T18:56:41.785Z,4.18
2017-12-15T18:59:10.206Z,4.70
2017-12-15T19:01:38.340Z,5.87
2017-12-15T19:04:06.580Z,8.63
2017-12-15T19:06:35.383Z,7.72
2017-12-15T19:09:03.756Z,4.18
2017-12-15T19:11:31.810Z,8.63
2017-12-15T19:14:01.422Z,7.28
2017-12-15T19:16:30.417Z,10.20
2017-12-15T19:18:59.223Z,10.40
2017-12-15T19:21:27.933Z,7.93
2017-12-15T19:23:56.015Z,7.75
2017-12-15T19:26:24.399Z,6.50
2017-12-15T19:28:52.874Z,10.48
2017-12-15T19:31:20.920Z,8.07
2017-12-15T19:33:49.397Z,5.80
2017-12-15T19:36:18.877Z,8.90
2017-12-15T19:38:47.591Z,4.82
2017-12-15T19:41:16.797Z,13.07
2017-12-15T19:43:45.525Z,12.43
2017-12-15T19:46:13.912Z,10.88
2017-12-15T19:48:42.500Z,12.55
2017-12-15T19:51:11.233Z,15.82
2017-12-15T19:53:40.304Z,7.87
2017-12-15T19:56:08.999Z,8.93
2017-12-15T19:58:37.396Z,14.25
2017-12-15T20:01:07.001Z,14.90
2017-12-15T20:03:36.497Z,8.45
2017-12-15T20:06:05.239Z,8.52
2017-12-15T20:08:33.634Z,8.27
2017-12-15T20:11:02.025Z,10.05
2017-12-15T20:13:30.492Z,7.35
2017-12-15T20:15:58.869Z,9.88
2017-12-15T20:18:27.052Z,11.15
2017-12-15T20:20:55.432Z,15.27
2017-12-15T20:23:23.804Z,11.52
2017-12-15T20:25:52.529Z,6.53
2017-12-15T20:28:20.904Z,8.77
2017-12-15T20:30:49.645Z,12.68
2017-12-15T20:33:18.021Z,9.75
2017-12-15T20:35:46.736Z,7.07
2017-12-15T20:38:15.680Z,9.88
2017-12-15T20:40:44.455Z,11.45
2017-12-15T20:43:13.613Z,9.82
2017-12-15T20:45:42.343Z,8.90
2017-12-15T20:48:11.499Z,10.60
2017-12-15T20:50:40.212Z,7.87
2017-12-15T20:53:08.375Z,6.40
2017-12-15T20:55:37.119Z,5.57
2017-12-15T20:58:05.867Z,5.10
2017-12-15T21:00:33.951Z,8.75
2017-12-15T21:03:02.357Z,5.03
2017-12-15T21:05:30.409Z,6.15
2017-12-15T21:07:59.587Z,10.45
2017-12-15T21:10:28.139Z,8.65
2017-12-15T21:12:56.228Z,8.05
2017-12-15T21:15:24.927Z,10.77
2017-12-15T21:17:53.654Z,6.12
2017-12-15T21:20:23.162Z,10.32
2017-12-15T21:22:52.656Z,8.68
2017-12-15T21:25:22.188Z,7.35
2017-12-15T21:27:50.983Z,11.35
2017-12-15T21:30:19.710Z,16.48
2017-12-15T21:32:48.427Z,12.37
2017-12-15T21:35:17.921Z,13.88
2017-12-15T21:37:46.646Z,13.70
2017-12-15T21:40:15.366Z,15.50
2017-12-15T21:42:44.135Z,10.50
2017-12-15T21:45:12.823Z,9.32
2017-12-15T21:47:41.543Z,11.20
2017-12-15T21:50:10.276Z,7.70
2017-12-15T21:52:39.746Z,8.75
2017-12-15T21:55:08.516Z,13.32
2017-12-15T21:57:37.054Z,13.70
2017-12-15T22:00:05.466Z,12.10
2017-12-15T22:02:34.184Z,7.57
2017-12-15T22:05:03.088Z,8.25
2017-12-15T22:07:31.787Z,6.78
2017-12-15T22:10:01.290Z,6.35
2017-12-15T22:12:29.987Z,10.02
2017-12-15T22:14:59.508Z,5.90
2017-12-15T22:17:28.215Z,7.55
2017-12-15T22:19:56.927Z,5.37
2017-12-15T22:22:25.673Z,8.27
2017-12-15T22:24:54.491Z,5.87
2017-12-15T22:27:22.852Z,6.62
2017-12-15T22:29:51.582Z,9.00
2017-12-15T22:32:20.312Z,8.70
2017-12-15T22:34:49.044Z,5.80
2017-12-15T22:37:17.751Z,9.25
2017-12-15T22:39:46.474Z,5.40
2017-12-15T22:42:15.271Z,10.02
2017-12-15T22:44:43.967Z,7.68
2017-12-15T22:47:12.757Z,6.28
2017-12-15T22:49:41.499Z,6.45
2017-12-15T22:52:10.972Z,4.68
2017-12-15T22:54:39.691Z,11.27
2017-12-15T22:57:08.438Z,5.60
2017-12-15T22:59:37.139Z,8.43
2017-12-15T23:02:05.507Z,6.62
2017-12-15T23:04:34.206Z,12.70
2017-12-15T23:07:02.923Z,5.60
2017-12-15T23:09:31.620Z,7.62
2017-12-15T23:12:01.085Z,9.82
2017-12-15T23:14:29.800Z,9.50
2017-12-15T23:16:58.489Z,9.05
2017-12-15T23:19:27.199Z,10.18
2017-12-15T23:21:56.650Z,10.73
2017-12-15T23:24:25.379Z,7.95
2017-12-15T23:26:54.097Z,8.05
2017-12-15T23:29:22.838Z,5.80
2017-12-15T23:31:51.722Z,6.57
2017-12-15T23:34:20.411Z,8.85
2017-12-15T23:36:48.987Z,8.00
2017-12-15T23:39:17.718Z,7.47
2017-12-15T23:41:47.183Z,6.80
2017-12-15T23:44:15.898Z,7.87
2017-12-15T23:46:43.970Z,10.68
2017-12-15T23:49:12.354Z,6.80
2017-12-15T23:51:40.749Z,9.57
2017-12-15T23:54:09.571Z,8.25
2017-12-15T23:56:49.643Z,9.48
2017-12-15T23:59:18.367Z,9.82
